sensor_id;sensor_type;location;lat;lon;timestamp;P1;durP1;ratioP1;P2;durP2;ratioP2
51764;SDS011;37835;53.256;6.456;2023-09-19T00:00:19;8.00;;;1.75;;
51764;SDS011;37835;53.256;6.456;2023-09-19T00:02:58;9.18;;;1.60;;
51764;SDS011;37835;53.256;6.456;2023-09-19T00:05:26;8.75;;;1.55;;
51764;SDS011;37835;53.256;6.456;2023-09-19T00:07:54;8.20;;;1.63;;
51764;SDS011;37835;53.256;6.456;2023-09-19T00:10:27;10.63;;;1.67;;
51764;SDS011;37835;53.256;6.456;2023-09-19T00:12:56;8.38;;;1.55;;
51764;SDS011;37835;53.256;6.456;2023-09-19T00:15:24;11.52;;;2.17;;
51764;SDS011;37835;53.256;6.456;2023-09-19T00:17:53;9.30;;;1.67;;
51764;SDS011;37835;53.256;6.456;2023-09-19T00:20:19;8.88;;;1.73;;
51764;SDS011;37835;53.256;6.456;2023-09-19T00:22:47;10.13;;;1.70;;
51764;SDS011;37835;53.256;6.456;2023-09-19T00:25:14;12.07;;;1.85;;
51764;SDS011;37835;53.256;6.456;2023-09-19T00:27:40;10.20;;;1.70;;
51764;SDS011;37835;53.256;6.456;2023-09-19T00:30:11;7.53;;;1.70;;
51764;SDS011;37835;53.256;6.456;2023-09-19T00:32:46;9.55;;;1.60;;
51764;SDS011;37835;53.256;6.456;2023-09-19T00:35:13;13.18;;;2.28;;
51764;SDS011;37835;53.256;6.456;2023-09-19T00:37:42;14.43;;;2.15;;
51764;SDS011;37835;53.256;6.456;2023-09-19T00:40:08;8.32;;;1.88;;
51764;SDS011;37835;53.256;6.456;2023-09-19T00:42:42;8.60;;;1.98;;
51764;SDS011;37835;53.256;6.456;2023-09-19T00:45:09;15.90;;;2.47;;
51764;SDS011;37835;53.256;6.456;2023-09-19T00:47:37;8.63;;;1.83;;
51764;SDS011;37835;53.256;6.456;2023-09-19T00:50:07;10.05;;;1.75;;
51764;SDS011;37835;53.256;6.456;2023-09-19T00:52:34;8.10;;;1.58;;
51764;SDS011;37835;53.256;6.456;2023-09-19T00:55:10;7.93;;;1.90;;
51764;SDS011;37835;53.256;6.456;2023-09-19T00:57:38;6.07;;;1.67;;
51764;SDS011;37835;53.256;6.456;2023-09-19T01:00:05;13.57;;;3.13;;
51764;SDS011;37835;53.256;6.456;2023-09-19T01:02:33;7.13;;;1.55;;
51764;SDS011;37835;53.256;6.456;2023-09-19T01:04:59;12.48;;;1.90;;
51764;SDS011;37835;53.256;6.456;2023-09-19T01:07:26;7.40;;;2.03;;
51764;SDS011;37835;53.256;6.456;2023-09-19T01:09:55;10.93;;;1.77;;
51764;SDS011;37835;53.256;6.456;2023-09-19T01:12:28;7.18;;;2.08;;
51764;SDS011;37835;53.256;6.456;2023-09-19T01:15:09;9.82;;;2.03;;
51764;SDS011;37835;53.256;6.456;2023-09-19T01:17:46;12.02;;;1.92;;
51764;SDS011;37835;53.256;6.456;2023-09-19T01:20:23;11.23;;;2.10;;
51764;SDS011;37835;53.256;6.456;2023-09-19T01:28:54;8.77;;;1.65;;
51764;SDS011;37835;53.256;6.456;2023-09-19T01:31:38;9.68;;;1.77;;
51764;SDS011;37835;53.256;6.456;2023-09-19T01:34:07;12.18;;;2.08;;
51764;SDS011;37835;53.256;6.456;2023-09-19T01:36:35;9.45;;;1.70;;
51764;SDS011;37835;53.256;6.456;2023-09-19T01:39:02;10.82;;;2.00;;
51764;SDS011;37835;53.256;6.456;2023-09-19T01:41:48;16.27;;;2.10;;
51764;SDS011;37835;53.256;6.456;2023-09-19T01:44:39;9.70;;;1.75;;
51764;SDS011;37835;53.256;6.456;2023-09-19T01:47:15;11.60;;;2.55;;
51764;SDS011;37835;53.256;6.456;2023-09-19T01:49:59;9.30;;;1.75;;
51764;SDS011;37835;53.256;6.456;2023-09-19T01:52:28;12.35;;;2.00;;
51764;SDS011;37835;53.256;6.456;2023-09-19T01:55:04;10.05;;;2.08;;
51764;SDS011;37835;53.256;6.456;2023-09-19T01:57:34;7.80;;;1.63;;
51764;SDS011;37835;53.256;6.456;2023-09-19T02:02:42;5.85;;;1.52;;
51764;SDS011;37835;53.256;6.456;2023-09-19T02:05:11;14.27;;;2.03;;
51764;SDS011;37835;53.256;6.456;2023-09-19T02:07:38;11.40;;;2.15;;
51764;SDS011;37835;53.256;6.456;2023-09-19T02:10:04;11.82;;;1.63;;
51764;SDS011;37835;53.256;6.456;2023-09-19T02:12:31;5.70;;;1.65;;
51764;SDS011;37835;53.256;6.456;2023-09-19T02:14:58;10.00;;;1.50;;
51764;SDS011;37835;53.256;6.456;2023-09-19T02:17:24;10.10;;;2.00;;
51764;SDS011;37835;53.256;6.456;2023-09-19T02:19:54;10.93;;;1.98;;
51764;SDS011;37835;53.256;6.456;2023-09-19T02:22:21;12.52;;;2.15;;
51764;SDS011;37835;53.256;6.456;2023-09-19T02:24:47;6.53;;;1.75;;
51764;SDS011;37835;53.256;6.456;2023-09-19T02:27:13;13.88;;;1.55;;
51764;SDS011;37835;53.256;6.456;2023-09-19T02:29:41;5.72;;;1.38;;
51764;SDS011;37835;53.256;6.456;2023-09-19T02:32:07;15.60;;;1.92;;
51764;SDS011;37835;53.256;6.456;2023-09-19T02:34:34;5.57;;;1.92;;
51764;SDS011;37835;53.256;6.456;2023-09-19T02:37:01;5.45;;;1.60;;
51764;SDS011;37835;53.256;6.456;2023-09-19T02:39:38;10.25;;;1.42;;
51764;SDS011;37835;53.256;6.456;2023-09-19T02:42:04;14.07;;;1.60;;
51764;SDS011;37835;53.256;6.456;2023-09-19T02:44:29;7.90;;;1.83;;
51764;SDS011;37835;53.256;6.456;2023-09-19T02:46:55;11.63;;;2.15;;
51764;SDS011;37835;53.256;6.456;2023-09-19T02:49:22;7.30;;;1.70;;
51764;SDS011;37835;53.256;6.456;2023-09-19T02:51:48;10.63;;;1.65;;
51764;SDS011;37835;53.256;6.456;2023-09-19T02:54:14;8.35;;;1.73;;
51764;SDS011;37835;53.256;6.456;2023-09-19T02:56:40;6.35;;;1.48;;
51764;SDS011;37835;53.256;6.456;2023-09-19T02:59:07;10.55;;;1.80;;
51764;SDS011;37835;53.256;6.456;2023-09-19T03:01:35;7.50;;;1.70;;
51764;SDS011;37835;53.256;6.456;2023-09-19T03:04:01;10.85;;;1.65;;
51764;SDS011;37835;53.256;6.456;2023-09-19T03:06:27;9.63;;;1.70;;
51764;SDS011;37835;53.256;6.456;2023-09-19T03:08:55;8.30;;;1.80;;
51764;SDS011;37835;53.256;6.456;2023-09-19T03:11:21;7.03;;;2.00;;
51764;SDS011;37835;53.256;6.456;2023-09-19T03:13:54;9.35;;;2.25;;
51764;SDS011;37835;53.256;6.456;2023-09-19T03:16:20;3.83;;;1.30;;
51764;SDS011;37835;53.256;6.456;2023-09-19T03:18:47;11.10;;;1.45;;
51764;SDS011;37835;53.256;6.456;2023-09-19T03:21:14;8.85;;;2.03;;
51764;SDS011;37835;53.256;6.456;2023-09-19T03:23:44;10.93;;;2.05;;
51764;SDS011;37835;53.256;6.456;2023-09-19T03:26:10;12.98;;;2.10;;
51764;SDS011;37835;53.256;6.456;2023-09-19T03:28:37;7.65;;;1.60;;
51764;SDS011;37835;53.256;6.456;2023-09-19T03:31:04;7.50;;;1.70;;
51764;SDS011;37835;53.256;6.456;2023-09-19T03:33:31;8.85;;;1.50;;
51764;SDS011;37835;53.256;6.456;2023-09-19T03:35:57;12.73;;;2.53;;
51764;SDS011;37835;53.256;6.456;2023-09-19T03:38:24;6.15;;;1.63;;
51764;SDS011;37835;53.256;6.456;2023-09-19T03:40:54;10.65;;;1.92;;
51764;SDS011;37835;53.256;6.456;2023-09-19T03:43:19;9.95;;;1.83;;
51764;SDS011;37835;53.256;6.456;2023-09-19T03:45:45;8.73;;;1.75;;
51764;SDS011;37835;53.256;6.456;2023-09-19T03:48:11;9.75;;;1.90;;
51764;SDS011;37835;53.256;6.456;2023-09-19T03:50:38;5.93;;;1.58;;
51764;SDS011;37835;53.256;6.456;2023-09-19T03:53:04;8.57;;;1.50;;
51764;SDS011;37835;53.256;6.456;2023-09-19T03:55:30;6.53;;;1.48;;
51764;SDS011;37835;53.256;6.456;2023-09-19T03:57:55;8.45;;;1.60;;
51764;SDS011;37835;53.256;6.456;2023-09-19T04:00:21;10.55;;;1.85;;
51764;SDS011;37835;53.256;6.456;2023-09-19T04:02:51;7.60;;;1.80;;
51764;SDS011;37835;53.256;6.456;2023-09-19T04:05:17;4.85;;;1.60;;
51764;SDS011;37835;53.256;6.456;2023-09-19T04:07:43;10.98;;;2.10;;
51764;SDS011;37835;53.256;6.456;2023-09-19T04:10:09;9.20;;;1.50;;
51764;SDS011;37835;53.256;6.456;2023-09-19T04:12:36;6.53;;;2.33;;
51764;SDS011;37835;53.256;6.456;2023-09-19T04:15:03;5.65;;;1.58;;
51764;SDS011;37835;53.256;6.456;2023-09-19T04:17:30;6.18;;;1.42;;
51764;SDS011;37835;53.256;6.456;2023-09-19T04:19:58;9.77;;;1.55;;
51764;SDS011;37835;53.256;6.456;2023-09-19T04:22:23;8.85;;;1.98;;
51764;SDS011;37835;53.256;6.456;2023-09-19T04:24:49;8.90;;;1.70;;
51764;SDS011;37835;53.256;6.456;2023-09-19T04:27:15;10.15;;;2.00;;
51764;SDS011;37835;53.256;6.456;2023-09-19T04:29:40;10.13;;;1.88;;
51764;SDS011;37835;53.256;6.456;2023-09-19T04:32:09;7.45;;;1.92;;
51764;SDS011;37835;53.256;6.456;2023-09-19T04:34:35;9.40;;;2.03;;
51764;SDS011;37835;53.256;6.456;2023-09-19T04:37:00;8.40;;;1.98;;
51764;SDS011;37835;53.256;6.456;2023-09-19T04:39:27;10.38;;;1.50;;
51764;SDS011;37835;53.256;6.456;2023-09-19T04:41:53;13.48;;;2.30;;
51764;SDS011;37835;53.256;6.456;2023-09-19T04:44:20;11.35;;;1.92;;
51764;SDS011;37835;53.256;6.456;2023-09-19T04:46:46;8.38;;;1.95;;
51764;SDS011;37835;53.256;6.456;2023-09-19T04:49:12;10.98;;;2.25;;
51764;SDS011;37835;53.256;6.456;2023-09-19T04:51:38;5.53;;;1.67;;
51764;SDS011;37835;53.256;6.456;2023-09-19T04:54:04;10.70;;;1.92;;
51764;SDS011;37835;53.256;6.456;2023-09-19T04:56:30;9.43;;;1.60;;
51764;SDS011;37835;53.256;6.456;2023-09-19T04:58:57;9.48;;;1.73;;
51764;SDS011;37835;53.256;6.456;2023-09-19T05:01:23;9.95;;;2.05;;
51764;SDS011;37835;53.256;6.456;2023-09-19T05:03:49;6.45;;;1.50;;
51764;SDS011;37835;53.256;6.456;2023-09-19T05:06:19;7.82;;;1.52;;
51764;SDS011;37835;53.256;6.456;2023-09-19T05:08:48;11.50;;;2.20;;
51764;SDS011;37835;53.256;6.456;2023-09-19T05:11:20;7.47;;;1.35;;
51764;SDS011;37835;53.256;6.456;2023-09-19T05:13:47;8.02;;;1.90;;
51764;SDS011;37835;53.256;6.456;2023-09-19T05:16:15;9.60;;;1.90;;
51764;SDS011;37835;53.256;6.456;2023-09-19T05:18:41;8.98;;;2.00;;
51764;SDS011;37835;53.256;6.456;2023-09-19T05:21:07;12.50;;;1.90;;
51764;SDS011;37835;53.256;6.456;2023-09-19T05:23:33;8.52;;;1.80;;
51764;SDS011;37835;53.256;6.456;2023-09-19T05:25:58;10.23;;;2.42;;
51764;SDS011;37835;53.256;6.456;2023-09-19T05:28:25;9.05;;;1.70;;
51764;SDS011;37835;53.256;6.456;2023-09-19T05:30:51;12.15;;;1.73;;
51764;SDS011;37835;53.256;6.456;2023-09-19T05:33:18;10.60;;;2.00;;
51764;SDS011;37835;53.256;6.456;2023-09-19T05:35:44;10.00;;;1.88;;
51764;SDS011;37835;53.256;6.456;2023-09-19T05:38:12;7.28;;;2.05;;
51764;SDS011;37835;53.256;6.456;2023-09-19T05:40:38;9.40;;;2.10;;
51764;SDS011;37835;53.256;6.456;2023-09-19T05:43:07;9.98;;;1.52;;
51764;SDS011;37835;53.256;6.456;2023-09-19T05:45:33;11.07;;;2.00;;
51764;SDS011;37835;53.256;6.456;2023-09-19T05:48:12;9.25;;;1.95;;
51764;SDS011;37835;53.256;6.456;2023-09-19T05:50:41;10.87;;;2.03;;
51764;SDS011;37835;53.256;6.456;2023-09-19T05:53:07;12.43;;;2.47;;
51764;SDS011;37835;53.256;6.456;2023-09-19T05:55:33;7.32;;;2.20;;
51764;SDS011;37835;53.256;6.456;2023-09-19T05:57:59;9.05;;;1.73;;
51764;SDS011;37835;53.256;6.456;2023-09-19T06:00:25;9.32;;;1.92;;
51764;SDS011;37835;53.256;6.456;2023-09-19T06:02:52;11.05;;;1.83;;
51764;SDS011;37835;53.256;6.456;2023-09-19T06:05:19;10.80;;;1.83;;
51764;SDS011;37835;53.256;6.456;2023-09-19T06:07:45;12.55;;;2.60;;
51764;SDS011;37835;53.256;6.456;2023-09-19T06:10:11;11.48;;;2.17;;
51764;SDS011;37835;53.256;6.456;2023-09-19T06:12:38;13.40;;;2.33;;
51764;SDS011;37835;53.256;6.456;2023-09-19T06:15:04;9.30;;;2.03;;
51764;SDS011;37835;53.256;6.456;2023-09-19T06:17:31;11.85;;;1.70;;
51764;SDS011;37835;53.256;6.456;2023-09-19T06:19:56;11.90;;;1.98;;
51764;SDS011;37835;53.256;6.456;2023-09-19T06:22:22;9.43;;;1.98;;
51764;SDS011;37835;53.256;6.456;2023-09-19T06:24:49;13.10;;;2.00;;
51764;SDS011;37835;53.256;6.456;2023-09-19T06:27:14;10.73;;;2.63;;
51764;SDS011;37835;53.256;6.456;2023-09-19T06:29:40;11.00;;;1.65;;
51764;SDS011;37835;53.256;6.456;2023-09-19T06:32:07;13.40;;;1.92;;
51764;SDS011;37835;53.256;6.456;2023-09-19T06:34:34;12.68;;;1.90;;
51764;SDS011;37835;53.256;6.456;2023-09-19T06:36:59;13.57;;;2.05;;
51764;SDS011;37835;53.256;6.456;2023-09-19T06:39:25;12.07;;;2.00;;
51764;SDS011;37835;53.256;6.456;2023-09-19T06:41:51;7.72;;;1.67;;
51764;SDS011;37835;53.256;6.456;2023-09-19T06:44:18;9.73;;;2.50;;
51764;SDS011;37835;53.256;6.456;2023-09-19T06:46:46;8.27;;;2.03;;
51764;SDS011;37835;53.256;6.456;2023-09-19T06:49:16;11.05;;;2.03;;
51764;SDS011;37835;53.256;6.456;2023-09-19T06:51:42;12.95;;;1.90;;
51764;SDS011;37835;53.256;6.456;2023-09-19T06:54:09;9.15;;;1.90;;
51764;SDS011;37835;53.256;6.456;2023-09-19T06:56:34;9.50;;;1.90;;
51764;SDS011;37835;53.256;6.456;2023-09-19T06:59:00;11.02;;;1.80;;
51764;SDS011;37835;53.256;6.456;2023-09-19T07:01:27;12.15;;;2.25;;
51764;SDS011;37835;53.256;6.456;2023-09-19T07:03:53;11.90;;;2.10;;
51764;SDS011;37835;53.256;6.456;2023-09-19T07:06:19;13.90;;;1.90;;
51764;SDS011;37835;53.256;6.456;2023-09-19T07:08:45;12.82;;;2.28;;
51764;SDS011;37835;53.256;6.456;2023-09-19T07:11:10;11.68;;;1.92;;
51764;SDS011;37835;53.256;6.456;2023-09-19T07:13:37;9.13;;;2.53;;
51764;SDS011;37835;53.256;6.456;2023-09-19T07:16:04;12.18;;;2.45;;
51764;SDS011;37835;53.256;6.456;2023-09-19T07:18:29;14.55;;;1.95;;
51764;SDS011;37835;53.256;6.456;2023-09-19T07:20:57;15.77;;;2.20;;
51764;SDS011;37835;53.256;6.456;2023-09-19T07:23:26;8.43;;;2.05;;
51764;SDS011;37835;53.256;6.456;2023-09-19T07:25:52;11.18;;;2.00;;
51764;SDS011;37835;53.256;6.456;2023-09-19T07:28:22;9.98;;;2.13;;
51764;SDS011;37835;53.256;6.456;2023-09-19T07:30:47;15.65;;;2.72;;
51764;SDS011;37835;53.256;6.456;2023-09-19T07:33:13;6.97;;;1.73;;
51764;SDS011;37835;53.256;6.456;2023-09-19T07:35:39;9.93;;;2.10;;
51764;SDS011;37835;53.256;6.456;2023-09-19T07:38:05;8.90;;;2.00;;
51764;SDS011;37835;53.256;6.456;2023-09-19T07:40:31;12.40;;;2.15;;
51764;SDS011;37835;53.256;6.456;2023-09-19T07:42:57;14.27;;;2.47;;
51764;SDS011;37835;53.256;6.456;2023-09-19T07:45:26;11.70;;;2.45;;
51764;SDS011;37835;53.256;6.456;2023-09-19T07:47:56;12.73;;;2.35;;
51764;SDS011;37835;53.256;6.456;2023-09-19T07:50:22;12.63;;;2.22;;
51764;SDS011;37835;53.256;6.456;2023-09-19T07:52:48;7.15;;;1.90;;
51764;SDS011;37835;53.256;6.456;2023-09-19T07:55:18;9.20;;;2.42;;
51764;SDS011;37835;53.256;6.456;2023-09-19T07:57:45;9.65;;;2.38;;
51764;SDS011;37835;53.256;6.456;2023-09-19T08:00:11;14.40;;;2.70;;
51764;SDS011;37835;53.256;6.456;2023-09-19T08:02:39;10.85;;;2.75;;
51764;SDS011;37835;53.256;6.456;2023-09-19T08:05:05;10.95;;;2.25;;
51764;SDS011;37835;53.256;6.456;2023-09-19T08:07:35;13.02;;;2.42;;
51764;SDS011;37835;53.256;6.456;2023-09-19T08:10:01;14.85;;;2.58;;
51764;SDS011;37835;53.256;6.456;2023-09-19T08:12:33;13.73;;;2.85;;
51764;SDS011;37835;53.256;6.456;2023-09-19T08:15:02;8.75;;;2.13;;
51764;SDS011;37835;53.256;6.456;2023-09-19T08:17:28;7.95;;;2.08;;
51764;SDS011;37835;53.256;6.456;2023-09-19T08:19:54;12.05;;;2.47;;
51764;SDS011;37835;53.256;6.456;2023-09-19T08:22:20;9.05;;;2.30;;
51764;SDS011;37835;53.256;6.456;2023-09-19T08:24:46;9.75;;;2.17;;
51764;SDS011;37835;53.256;6.456;2023-09-19T08:27:12;16.67;;;2.45;;
51764;SDS011;37835;53.256;6.456;2023-09-19T08:29:38;14.63;;;2.30;;
51764;SDS011;37835;53.256;6.456;2023-09-19T08:32:04;12.25;;;2.22;;
51764;SDS011;37835;53.256;6.456;2023-09-19T08:34:30;7.97;;;2.10;;
51764;SDS011;37835;53.256;6.456;2023-09-19T08:36:58;9.23;;;2.50;;
51764;SDS011;37835;53.256;6.456;2023-09-19T08:39:23;11.95;;;2.53;;
51764;SDS011;37835;53.256;6.456;2023-09-19T08:41:56;13.00;;;2.47;;
51764;SDS011;37835;53.256;6.456;2023-09-19T08:44:24;10.13;;;2.65;;
51764;SDS011;37835;53.256;6.456;2023-09-19T08:46:50;14.23;;;2.85;;
51764;SDS011;37835;53.256;6.456;2023-09-19T08:49:24;9.52;;;2.45;;
51764;SDS011;37835;53.256;6.456;2023-09-19T08:52:01;11.48;;;2.10;;
51764;SDS011;37835;53.256;6.456;2023-09-19T08:54:37;12.18;;;2.42;;
51764;SDS011;37835;53.256;6.456;2023-09-19T08:57:06;9.65;;;2.70;;
51764;SDS011;37835;53.256;6.456;2023-09-19T08:59:39;11.60;;;2.92;;
51764;SDS011;37835;53.256;6.456;2023-09-19T09:02:10;8.38;;;2.38;;
51764;SDS011;37835;53.256;6.456;2023-09-19T09:04:38;15.23;;;2.75;;
51764;SDS011;37835;53.256;6.456;2023-09-19T09:07:09;11.98;;;2.55;;
51764;SDS011;37835;53.256;6.456;2023-09-19T09:09:37;14.73;;;2.65;;
51764;SDS011;37835;53.256;6.456;2023-09-19T09:12:07;12.65;;;2.50;;
51764;SDS011;37835;53.256;6.456;2023-09-19T09:14:45;10.95;;;2.38;;
51764;SDS011;37835;53.256;6.456;2023-09-19T09:17:15;13.25;;;2.72;;
51764;SDS011;37835;53.256;6.456;2023-09-19T09:19:45;14.32;;;2.45;;
51764;SDS011;37835;53.256;6.456;2023-09-19T09:22:12;16.38;;;2.80;;
51764;SDS011;37835;53.256;6.456;2023-09-19T09:24:51;11.63;;;2.25;;
51764;SDS011;37835;53.256;6.456;2023-09-19T09:27:18;10.82;;;3.05;;
51764;SDS011;37835;53.256;6.456;2023-09-19T09:32:31;12.45;;;2.78;;
51764;SDS011;37835;53.256;6.456;2023-09-19T09:35:01;11.50;;;2.60;;
51764;SDS011;37835;53.256;6.456;2023-09-19T09:37:29;11.68;;;2.88;;
51764;SDS011;37835;53.256;6.456;2023-09-19T09:39:59;14.13;;;2.65;;
51764;SDS011;37835;53.256;6.456;2023-09-19T09:42:44;11.75;;;2.92;;
51764;SDS011;37835;53.256;6.456;2023-09-19T09:47:47;16.67;;;3.20;;
51764;SDS011;37835;53.256;6.456;2023-09-19T09:53:04;12.52;;;2.70;;
51764;SDS011;37835;53.256;6.456;2023-09-19T09:58:25;12.82;;;2.97;;
51764;SDS011;37835;53.256;6.456;2023-09-19T10:00:55;10.57;;;3.15;;
51764;SDS011;37835;53.256;6.456;2023-09-19T10:03:23;16.52;;;3.38;;
51764;SDS011;37835;53.256;6.456;2023-09-19T10:05:59;15.45;;;3.00;;
51764;SDS011;37835;53.256;6.456;2023-09-19T10:08:27;15.77;;;3.17;;
51764;SDS011;37835;53.256;6.456;2023-09-19T10:10:56;14.93;;;2.95;;
51764;SDS011;37835;53.256;6.456;2023-09-19T10:13:30;12.40;;;2.97;;
51764;SDS011;37835;53.256;6.456;2023-09-19T10:15:58;13.77;;;2.92;;
51764;SDS011;37835;53.256;6.456;2023-09-19T10:18:28;14.55;;;3.80;;
51764;SDS011;37835;53.256;6.456;2023-09-19T10:20:58;13.52;;;3.30;;
51764;SDS011;37835;53.256;6.456;2023-09-19T10:23:26;12.73;;;3.63;;
51764;SDS011;37835;53.256;6.456;2023-09-19T10:25:55;12.70;;;3.30;;
51764;SDS011;37835;53.256;6.456;2023-09-19T10:28:24;16.17;;;3.00;;
51764;SDS011;37835;53.256;6.456;2023-09-19T10:30:55;16.55;;;3.20;;
51764;SDS011;37835;53.256;6.456;2023-09-19T10:33:24;15.40;;;3.33;;
51764;SDS011;37835;53.256;6.456;2023-09-19T10:35:55;10.25;;;3.03;;
51764;SDS011;37835;53.256;6.456;2023-09-19T10:38:25;12.38;;;3.22;;
51764;SDS011;37835;53.256;6.456;2023-09-19T10:40:55;14.48;;;3.08;;
51764;SDS011;37835;53.256;6.456;2023-09-19T10:43:25;11.80;;;2.95;;
51764;SDS011;37835;53.256;6.456;2023-09-19T10:45:55;12.45;;;3.05;;
51764;SDS011;37835;53.256;6.456;2023-09-19T10:48:26;10.82;;;2.60;;
51764;SDS011;37835;53.256;6.456;2023-09-19T10:53:41;15.88;;;3.05;;
51764;SDS011;37835;53.256;6.456;2023-09-19T10:56:37;9.73;;;2.67;;
51764;SDS011;37835;53.256;6.456;2023-09-19T10:59:14;14.57;;;3.03;;
51764;SDS011;37835;53.256;6.456;2023-09-19T11:01:42;9.82;;;2.58;;
51764;SDS011;37835;53.256;6.456;2023-09-19T11:15:06;11.25;;;3.30;;
51764;SDS011;37835;53.256;6.456;2023-09-19T11:17:40;13.43;;;2.80;;
51764;SDS011;37835;53.256;6.456;2023-09-19T11:30:34;14.52;;;3.42;;
51764;SDS011;37835;53.256;6.456;2023-09-19T11:33:21;13.30;;;3.33;;
51764;SDS011;37835;53.256;6.456;2023-09-19T11:36:06;13.85;;;3.25;;
51764;SDS011;37835;53.256;6.456;2023-09-19T11:43:52;20.95;;;3.88;;
51764;SDS011;37835;53.256;6.456;2023-09-19T11:46:20;12.10;;;3.28;;
51764;SDS011;37835;53.256;6.456;2023-09-19T11:48:49;15.57;;;3.00;;
51764;SDS011;37835;53.256;6.456;2023-09-19T11:53:57;12.00;;;3.25;;
51764;SDS011;37835;53.256;6.456;2023-09-19T11:56:27;12.82;;;2.97;;
51764;SDS011;37835;53.256;6.456;2023-09-19T11:58:53;14.82;;;3.20;;
51764;SDS011;37835;53.256;6.456;2023-09-19T12:01:23;12.13;;;3.03;;
51764;SDS011;37835;53.256;6.456;2023-09-19T12:03:54;19.10;;;3.53;;
51764;SDS011;37835;53.256;6.456;2023-09-19T12:06:22;15.05;;;3.55;;
51764;SDS011;37835;53.256;6.456;2023-09-19T12:08:49;13.10;;;2.78;;
51764;SDS011;37835;53.256;6.456;2023-09-19T12:11:18;14.90;;;3.10;;
51764;SDS011;37835;53.256;6.456;2023-09-19T12:13:46;15.10;;;3.05;;
51764;SDS011;37835;53.256;6.456;2023-09-19T12:16:20;17.73;;;2.88;;
51764;SDS011;37835;53.256;6.456;2023-09-19T12:18:47;12.23;;;2.75;;
51764;SDS011;37835;53.256;6.456;2023-09-19T12:21:30;12.70;;;2.72;;
51764;SDS011;37835;53.256;6.456;2023-09-19T12:26:38;13.77;;;2.60;;
51764;SDS011;37835;53.256;6.456;2023-09-19T12:29:10;13.57;;;2.63;;
51764;SDS011;37835;53.256;6.456;2023-09-19T12:31:55;13.02;;;3.17;;
51764;SDS011;37835;53.256;6.456;2023-09-19T12:34:31;16.52;;;2.83;;
51764;SDS011;37835;53.256;6.456;2023-09-19T12:39:40;12.88;;;2.50;;
51764;SDS011;37835;53.256;6.456;2023-09-19T12:42:08;10.93;;;2.47;;
51764;SDS011;37835;53.256;6.456;2023-09-19T12:44:38;7.22;;;2.10;;
51764;SDS011;37835;53.256;6.456;2023-09-19T12:47:11;10.40;;;2.05;;
51764;SDS011;37835;53.256;6.456;2023-09-19T12:52:34;10.27;;;2.17;;
51764;SDS011;37835;53.256;6.456;2023-09-19T12:55:01;11.20;;;2.78;;
51764;SDS011;37835;53.256;6.456;2023-09-19T12:57:28;9.45;;;1.95;;
51764;SDS011;37835;53.256;6.456;2023-09-19T12:59:57;12.20;;;2.45;;
51764;SDS011;37835;53.256;6.456;2023-09-19T13:02:22;13.52;;;2.58;;
51764;SDS011;37835;53.256;6.456;2023-09-19T13:04:53;13.60;;;2.10;;
51764;SDS011;37835;53.256;6.456;2023-09-19T13:10:12;8.35;;;1.92;;
51764;SDS011;37835;53.256;6.456;2023-09-19T13:12:41;9.43;;;2.17;;
51764;SDS011;37835;53.256;6.456;2023-09-19T13:15:09;8.93;;;1.92;;
51764;SDS011;37835;53.256;6.456;2023-09-19T13:17:47;8.15;;;1.90;;
51764;SDS011;37835;53.256;6.456;2023-09-19T13:20:25;10.52;;;2.03;;
51764;SDS011;37835;53.256;6.456;2023-09-19T13:22:57;9.80;;;1.73;;
51764;SDS011;37835;53.256;6.456;2023-09-19T13:25:33;15.35;;;2.28;;
51764;SDS011;37835;53.256;6.456;2023-09-19T13:27:59;9.63;;;2.22;;
51764;SDS011;37835;53.256;6.456;2023-09-19T13:30:29;9.52;;;1.85;;
51764;SDS011;37835;53.256;6.456;2023-09-19T13:33:09;12.88;;;2.45;;
51764;SDS011;37835;53.256;6.456;2023-09-19T13:35:36;11.52;;;1.70;;
51764;SDS011;37835;53.256;6.456;2023-09-19T13:38:05;10.82;;;2.10;;
51764;SDS011;37835;53.256;6.456;2023-09-19T13:40:31;10.20;;;1.92;;
51764;SDS011;37835;53.256;6.456;2023-09-19T13:43:00;13.32;;;1.85;;
51764;SDS011;37835;53.256;6.456;2023-09-19T13:45:26;8.05;;;1.98;;
51764;SDS011;37835;53.256;6.456;2023-09-19T13:47:52;6.57;;;1.63;;
51764;SDS011;37835;53.256;6.456;2023-09-19T13:50:18;7.78;;;1.73;;
51764;SDS011;37835;53.256;6.456;2023-09-19T13:52:49;8.02;;;1.30;;
51764;SDS011;37835;53.256;6.456;2023-09-19T13:55:16;6.93;;;1.30;;
51764;SDS011;37835;53.256;6.456;2023-09-19T13:57:45;7.07;;;1.33;;
51764;SDS011;37835;53.256;6.456;2023-09-19T14:00:19;5.90;;;1.83;;
51764;SDS011;37835;53.256;6.456;2023-09-19T14:02:45;6.75;;;1.38;;
51764;SDS011;37835;53.256;6.456;2023-09-19T14:05:13;7.03;;;1.40;;
51764;SDS011;37835;53.256;6.456;2023-09-19T14:07:41;8.45;;;1.50;;
51764;SDS011;37835;53.256;6.456;2023-09-19T14:10:07;7.85;;;1.77;;
51764;SDS011;37835;53.256;6.456;2023-09-19T14:12:33;4.03;;;1.45;;
51764;SDS011;37835;53.256;6.456;2023-09-19T14:14:59;8.63;;;2.05;;
51764;SDS011;37835;53.256;6.456;2023-09-19T14:17:25;10.13;;;1.70;;
51764;SDS011;37835;53.256;6.456;2023-09-19T14:19:51;8.93;;;2.30;;
51764;SDS011;37835;53.256;6.456;2023-09-19T14:22:17;7.20;;;1.52;;
51764;SDS011;37835;53.256;6.456;2023-09-19T14:24:43;5.28;;;1.60;;
51764;SDS011;37835;53.256;6.456;2023-09-19T14:27:09;6.78;;;1.63;;
51764;SDS011;37835;53.256;6.456;2023-09-19T14:29:35;6.25;;;1.60;;
51764;SDS011;37835;53.256;6.456;2023-09-19T14:32:01;7.50;;;1.73;;
51764;SDS011;37835;53.256;6.456;2023-09-19T14:34:26;8.88;;;1.88;;
51764;SDS011;37835;53.256;6.456;2023-09-19T14:36:52;8.38;;;1.40;;
51764;SDS011;37835;53.256;6.456;2023-09-19T14:39:19;4.32;;;1.30;;
51764;SDS011;37835;53.256;6.456;2023-09-19T14:41:45;7.78;;;1.75;;
51764;SDS011;37835;53.256;6.456;2023-09-19T14:44:10;6.70;;;1.80;;
51764;SDS011;37835;53.256;6.456;2023-09-19T14:46:36;7.70;;;1.80;;
51764;SDS011;37835;53.256;6.456;2023-09-19T14:49:01;10.20;;;1.65;;
51764;SDS011;37835;53.256;6.456;2023-09-19T14:51:29;10.52;;;1.95;;
51764;SDS011;37835;53.256;6.456;2023-09-19T14:53:56;9.40;;;2.20;;
51764;SDS011;37835;53.256;6.456;2023-09-19T14:56:22;11.20;;;2.30;;
51764;SDS011;37835;53.256;6.456;2023-09-19T14:58:49;7.13;;;2.03;;
51764;SDS011;37835;53.256;6.456;2023-09-19T15:01:14;9.10;;;1.75;;
51764;SDS011;37835;53.256;6.456;2023-09-19T15:03:41;4.38;;;1.50;;
51764;SDS011;37835;53.256;6.456;2023-09-19T15:06:12;4.95;;;1.63;;
51764;SDS011;37835;53.256;6.456;2023-09-19T15:08:43;6.20;;;1.90;;
51764;SDS011;37835;53.256;6.456;2023-09-19T15:11:16;6.80;;;1.90;;
51764;SDS011;37835;53.256;6.456;2023-09-19T15:13:42;7.35;;;1.20;;
51764;SDS011;37835;53.256;6.456;2023-09-19T15:16:09;8.65;;;1.60;;
51764;SDS011;37835;53.256;6.456;2023-09-19T15:18:36;7.38;;;1.77;;
51764;SDS011;37835;53.256;6.456;2023-09-19T15:21:04;8.52;;;1.70;;
51764;SDS011;37835;53.256;6.456;2023-09-19T15:23:30;5.20;;;1.90;;
51764;SDS011;37835;53.256;6.456;2023-09-19T15:25:59;6.38;;;1.60;;
51764;SDS011;37835;53.256;6.456;2023-09-19T15:28:28;7.32;;;1.73;;
51764;SDS011;37835;53.256;6.456;2023-09-19T15:31:02;6.22;;;1.80;;
51764;SDS011;37835;53.256;6.456;2023-09-19T15:33:27;8.23;;;1.70;;
51764;SDS011;37835;53.256;6.456;2023-09-19T15:36:08;6.25;;;2.25;;
51764;SDS011;37835;53.256;6.456;2023-09-19T15:38:55;4.75;;;1.70;;
51764;SDS011;37835;53.256;6.456;2023-09-19T15:41:22;6.10;;;1.83;;
51764;SDS011;37835;53.256;6.456;2023-09-19T15:43:48;5.57;;;1.90;;
51764;SDS011;37835;53.256;6.456;2023-09-19T15:46:14;6.50;;;2.03;;
51764;SDS011;37835;53.256;6.456;2023-09-19T15:48:40;8.88;;;1.67;;
51764;SDS011;37835;53.256;6.456;2023-09-19T15:51:06;6.78;;;1.67;;